KB3WYD Weather Reports


Display with metric or nautical units.
time (UTC)temp
F
wind
direction
speed
MPH
gust
MPH
rain 1hr
in
rain 24hr
in
rain mn
in
humidity
%
barometer
mb
20200402063110 42 293 1.0 9.0 0.00 0.00 0.00 54 1011.6
20200402061614 43 303 3.0 10.0 0.00 0.00 0.00 53 1011.6
20200402060125 43 289 1.0 7.0 0.00 0.00 0.00 52 1011.7
20200402054730 43 295 2.0 9.0 0.00 0.00 0.00 51 1011.7
20200402053238 44 299 2.0 6.0 0.00 0.00 0.00 51 1011.7
20200402051644 44 336 4.0 13.0 0.00 0.00 0.00 52 1011.8
20200402050137 45 323 3.0 10.0 0.00 0.00 0.00 51 1011.6
20200402044543 45 297 5.0 17.0 0.00 0.01 0.00 50 1011.4
20200402043028 46 318 5.0 15.0 0.00 0.01 0.00 54 1011.3
20200402041534 46 312 9.0 17.0 0.00 0.01 0.00 54 1011.2
20200402040022 46 298 4.0 13.0 0.00 0.01 0.00 59 1011.0
20200402034535 46 307 2.0 8.0 0.00 0.03 0.01 65 1010.9
20200402033044 46 294 4.0 7.0 0.00 0.03 0.01 72 1010.6
20200402031518 46 278 1.0 4.0 0.00 0.03 0.01 74 1010.3
20200402030041 46 277 0.0 0.0 0.00 0.03 0.01 73 1010.1
20200402024538 46 277 0.0 2.0 0.00 0.03 0.01 73 1010.0
20200402023022 47 271 1.0 6.0 0.00 0.03 0.01 73 1009.9
20200402021519 47 257 0.0 2.0 0.00 0.03 0.01 72 1009.9
20200402020018 48 257 0.0 3.0 0.00 0.03 0.01 71 1009.9
20200402014547 48 257 0.0 0.0 0.00 0.05 0.01 71 1009.9
20200402013041 48 257 0.0 3.0 0.00 0.05 0.01 69 1009.8
20200402011528 49 257 0.0 0.0 0.00 0.05 0.01 68 1009.7
20200402010047 50 257 0.0 0.0 0.00 0.05 0.01 66 1009.6
20200402004529 50 257 0.0 0.0 0.00 0.06 0.01 64 1009.4
20200402003040 51 257 0.0 0.0 0.00 0.06 0.01 63 1009.2
20200402001520 52 257 0.0 4.0 0.00 0.06 0.01 62 1009.0
20200402000053 52 257 0.0 4.0 0.00 0.06 0.01 62 1008.9
20200401234534 52 292 0.0 3.0 0.00 0.06 0.01 61 1008.8
20200401233011 52 292 0.0 4.0 0.00 0.06 0.01 61 1008.7
20200401231526 53 284 3.0 7.0 0.00 0.06 0.01 60 1008.6
20200401230035 53 300 7.0 11.0 0.00 0.06 0.01 59 1008.5
20200401224509 53 296 2.0 9.0 0.00 0.06 0.01 59 1008.5
20200401223035 53 300 3.0 8.0 0.00 0.06 0.01 59 1008.4
20200401221507 53 293 2.0 7.0 0.00 0.06 0.01 59 1008.3
20200401220007 53 292 2.0 7.0 0.00 0.06 0.01 59 1008.2
20200401214511 53 346 3.0 6.0 0.00 0.06 0.01 58 1008.1
20200401213022 53 287 2.0 8.0 0.00 0.06 0.01 60 1008.1
20200401211508 53 331 2.0 10.0 0.00 0.06 0.01 59 1008.1
20200401210033 52 313 2.0 8.0 0.00 0.06 0.01 58 1008.0
20200401204502 52 308 2.0 8.0 0.00 0.06 0.01 59 1008.0
20200401203001 52 297 6.0 11.0 0.00 0.06 0.01 58 1008.1
20200401201753 52 302 1.0 10.0 0.00 0.06 0.01 59 1008.2
20200401200154 52 312 5.0 11.0 0.00 0.06 0.01 58 1008.2
20200401194654 52 298 5.0 9.0 0.00 0.06 0.01 59 1008.2
20200401191718 51 294 6.0 12.0 0.00 0.06 0.01 62 1008.3
20200401190117 50 305 5.0 14.0 0.00 0.06 0.01 63 1008.4
20200401184816 50 320 7.0 14.0 0.00 0.08 0.01 62 1008.5
20200401183144 51 302 4.0 13.0 0.00 0.08 0.01 59 1008.4
20200401181617 51 342 7.0 13.0 0.00 0.08 0.01 60 1008.6
20200401180137 50 336 6.0 13.0 0.00 0.08 0.01 60 1008.9
20200401174706 51 348 3.0 14.0 0.00 0.11 0.01 59 1008.9
20200401173143 50 292 8.0 15.0 0.00 0.11 0.01 60 1009.0
20200401171716 49 303 1.0 10.0 0.00 0.11 0.01 64 1009.2
20200401170316 49 317 6.0 12.0 0.00 0.11 0.01 62 1009.3
20200401163103 48 355 2.0 15.0 0.00 0.11 0.01 63 1009.5
20200401161608 48 313 1.0 12.0 0.00 0.11 0.01 65 1009.6
20200401160124 47 319 7.0 15.0 0.00 0.11 0.01 64 1009.7
20200401154658 48 331 3.0 10.0 0.00 0.11 0.01 63 1009.8
20200401153133 48 348 1.0 11.0 0.00 0.11 0.01 63 1009.9
20200401151644 49 332 5.0 11.0 0.00 0.11 0.01 61 1009.9
20200401150101 49 107 1.0 9.0 0.00 0.11 0.01 64 1009.9
20200401144556 48 344 2.0 13.0 0.00 0.11 0.01 65 1009.9
20200401143103 47 331 2.0 9.0 0.00 0.11 0.01 68 1010.0
20200401141552 46 349 4.0 14.0 0.00 0.11 0.01 66 1010.2
20200401140036 45 319 0.0 6.0 0.00 0.11 0.01 72 1010.2
20200401134609 45 32 2.0 12.0 0.00 0.11 0.01 73 1010.2
20200401133024 44 342 1.0 5.0 0.00 0.11 0.01 75 1010.1
20200401131526 43 355 0.0 9.0 0.00 0.11 0.01 76 1010.1
20200401130027 43 355 1.0 10.0 0.00 0.11 0.01 76 1010.1
20200401124546 42 321 2.0 8.0 0.00 0.11 0.01 79 1009.9
20200401123054 42 327 3.0 9.0 0.00 0.11 0.01 82 1009.9
20200401121509 41 360 0.0 9.0 0.00 0.11 0.01 83 1009.9
20200401120019 40 331 1.0 8.0 0.00 0.11 0.01 85 1009.7
20200401114510 40 305 1.0 6.0 0.00 0.11 0.01 85 1009.6
20200401113224 40 327 1.0 5.0 0.00 0.11 0.01 84 1009.4
20200401111754 40 329 0.0 1.0 0.00 0.11 0.01 84 1009.4
20200401110121 40 329 0.0 6.0 0.00 0.11 0.01 84 1009.0
20200401104608 40 347 2.0 8.0 0.00 0.11 0.01 84 1008.8
20200401103220 40 336 3.0 8.0 0.00 0.11 0.01 85 1008.5
20200401101621 40 351 2.0 9.0 0.00 0.11 0.01 85 1008.3
20200401100052 39 329 3.0 9.0 0.00 0.11 0.01 84 1008.3
20200401094650 40 331 1.0 6.0 0.00 0.11 0.01 84 1008.1
20200401093054 40 333 2.0 6.0 0.00 0.11 0.01 84 1008.2
20200401091625 40 11 0.0 4.0 0.00 0.11 0.01 83 1008.3
20200401090055 40 347 1.0 9.0 0.00 0.11 0.01 83 1008.3
20200401084606 40 339 0.0 9.0 0.00 0.11 0.01 83 1008.5
20200401083116 40 327 0.0 5.0 0.00 0.11 0.01 83 1008.7
20200401081651 40 324 0.0 5.0 0.00 0.11 0.01 83 1008.6
20200401080318 40 344 0.0 2.0 0.00 0.11 0.01 83 1008.6
20200401074728 40 5 0.0 4.0 0.00 0.11 0.01 83 1008.6
20200401073126 40 338 0.0 4.0 0.00 0.11 0.01 83 1008.6
20200401071737 40 340 0.0 6.0 0.00 0.11 0.01 83 1008.6
20200401070243 41 328 1.0 9.0 0.00 0.11 0.01 82 1008.5
20200401064611 41 340 0.0 10.0 0.00 0.11 0.01 81 1008.8